Sunflower Hakata — JL6711 — position and weather

sailwx.info

Track history (hours):
 
Tides and Currents Weather Stations Pressure Air Temp Water Temp Dewpoint Dewpoint Depression Visibility Wind Speed Wind Dir Waves Ship Positions

Sunflower Hakata

Last reported at 2017-Nov-20 00:28 UTC. Time now 2017-Nov-23 01:42 UTC.
Position N 35°37' E 139°48'.

Length 167 m; draft 6.6 m.

Type: Cargo ship. MMSI: 431501764.

Date/timePositionNaut miles runAvg speedWind from/ knotsBaromVisibWave heightAir tempDewpointWater temp
2017-Nov-20 00:28N 35°37' E 139°48'0 0.0
2017-Nov-19 23:58N 35°37' E 139°48'0 0.0
2017-Nov-19 23:28N 35°37' E 139°48'0 0.0
2017-Nov-19 22:55N 35°37' E 139°48'0 0.0
2017-Nov-19 22:28N 35°37' E 139°48'0 0.0
2017-Nov-19 22:01N 35°37' E 139°48'0 0.0
2017-Nov-19 21:30N 35°37' E 139°48'0 0.0
2017-Nov-19 21:00N 35°37' E 139°48'0 0.0
2017-Nov-19 20:30N 35°37' E 139°48'1 1.9
2017-Nov-19 20:01N 35°36' E 139°47'815.0
2017-Nov-19 19:31N 35°29' E 139°52'816.5
2017-Nov-19 19:00N 35°23' E 139°46'611.8
2017-Nov-19 18:30N 35°17' E 139°45'713.5
2017-Nov-19 18:01N 35°10' E 139°47'1019.6
2017-Nov-19 17:30N 35°02' E 139°41'1020.0
2017-Nov-19 17:00N 34°56' E 139°31'23219.5
2017-Nov-19 05:06N 33°53' E 135°00'223.7
2017-Nov-19 05:00N 33°55' E 134°60'1223.1
2017-Nov-19 04:30N 34°07' E 134°59'1223.5
2017-Nov-19 04:00N 34°19' E 134°59'1122.0
2017-Nov-19 03:30N 34°30' E 135°02'815.3
2017-Nov-19 03:00N 34°37' E 134°60'917.2
2017-Nov-19 02:27N 34°33' E 134°49'  
2017-Nov-16 15:23N 34°50' E 139°17'922.0
2017-Nov-16 14:59N 34°55' E 139°25'1122.4
2017-Nov-16 14:30N 35°02' E 139°36'1121.5
2017-Nov-16 14:00N 35°09' E 139°45'714.5
2017-Nov-16 13:30N 35°17' E 139°45'815.2
2017-Nov-16 13:00N 35°24' E 139°43'1020.4
2017-Nov-16 12:30N 35°31' E 139°51'6 0.4
2017-Nov-15 22:01N 35°37' E 139°48'0 0.0
2017-Nov-15 21:31N 35°37' E 139°48'0 0.0
2017-Nov-15 20:58N 35°37' E 139°48'0 0.0
2017-Nov-15 20:30N 35°37' E 139°48'1 2.7
2017-Nov-15 20:01N 35°36' E 139°47'815.2
2017-Nov-15 19:30N 35°29' E 139°52'816.6
2017-Nov-15 19:00N 35°23' E 139°46'611.9
2017-Nov-15 18:30N 35°17' E 139°46'714.5
2017-Nov-15 18:00N 35°10' E 139°47'1019.5
2017-Nov-15 17:30N 35°01' E 139°41'1020.2
2017-Nov-15 17:00N 34°55' E 139°31'1020.3
2017-Nov-15 16:30N 34°49' E 139°21'22318.7
2017-Nov-15 04:36N 33°54' E 134°59'223.5
2017-Nov-15 04:30N 33°56' E 134°59'1223.5
2017-Nov-15 04:00N 34°08' E 134°59'1324.1
2017-Nov-15 03:29N 34°20' E 134°60'1123.4
2017-Nov-15 03:01N 34°31' E 135°03'816.2
2017-Nov-15 02:30N 34°36' E 134°55'  
2017-Nov-11 14:21N 34°49' E 139°16'821.7
2017-Nov-11 13:58N 34°54' E 139°24'1022.3
2017-Nov-11 13:31N 35°00' E 139°33'1121.5
2017-Nov-11 13:00N 35°07' E 139°44'816.7
2017-Nov-11 12:30N 35°15' E 139°46'612.9
2017-Nov-11 12:01N 35°21' E 139°42'917.9
2017-Nov-11 11:31N 35°28' E 139°49'714.7
2017-Nov-11 11:00N 35°35' E 139°47'2 0.3
2017-Nov-11 06:11N 35°37' E 139°48'0 0.0
2017-Nov-11 04:59N 35°37' E 139°48'0 0.0
2017-Nov-11 04:23N 35°37' E 139°48'0 0.0
2017-Nov-11 02:29N 35°37' E 139°48'0 0.0
2017-Nov-10 21:28N 35°37' E 139°48'0 0.0
2017-Nov-10 20:56N 35°37' E 139°48'0 0.5
2017-Nov-10 20:29N 35°37' E 139°48'510.2
2017-Nov-10 20:00N 35°33' E 139°51'611.3
2017-Nov-10 19:31N 35°27' E 139°50'713.3
2017-Nov-10 19:00N 35°22' E 139°45'611.2
2017-Nov-10 18:30N 35°16' E 139°46'714.4
2017-Nov-10 18:01N 35°09' E 139°46'1019.7
2017-Nov-10 17:30N 35°01' E 139°39'1121.3
2017-Nov-10 16:59N 34°54' E 139°29'22919.6
2017-Nov-10 05:21N 33°54' E 135°01'822.5
2017-Nov-10 05:00N 34°02' E 135°00'1122.2
2017-Nov-10 04:30N 34°13' E 134°59'1020.4
2017-Nov-10 04:00N 34°23' E 134°59'1021.1
2017-Nov-10 03:30N 34°33' E 135°03'713.5
2017-Nov-10 03:00N 34°35' E 134°55'  
Track history (hours):
 
Tides and Currents Weather Stations Pressure Air Temp Water Temp Dewpoint Dewpoint Depression Visibility Wind Speed Wind Dir Waves Ship Positions

Sunflower Hakata

Last reported at 2017-Nov-20 00:28 UTC. Time now 2017-Nov-23 01:42 UTC.
Position N 35°37' E 139°48'.

Length 167 m; draft 6.6 m.

Type: Cargo ship. MMSI: 431501764.

Date/timePositionNaut miles runAvg speedWind from/ knotsBaromVisibWave heightAir tempDewpointWater temp
2017-Nov-20 00:28N 35°37' E 139°48'0 0.0
2017-Nov-19 23:58N 35°37' E 139°48'0 0.0
2017-Nov-19 23:28N 35°37' E 139°48'0 0.0
2017-Nov-19 22:55N 35°37' E 139°48'0 0.0
2017-Nov-19 22:28N 35°37' E 139°48'0 0.0
2017-Nov-19 22:01N 35°37' E 139°48'0 0.0
2017-Nov-19 21:30N 35°37' E 139°48'0 0.0
2017-Nov-19 21:00N 35°37' E 139°48'0 0.0
2017-Nov-19 20:30N 35°37' E 139°48'1 1.9
2017-Nov-19 20:01N 35°36' E 139°47'815.0
2017-Nov-19 19:31N 35°29' E 139°52'816.5
2017-Nov-19 19:00N 35°23' E 139°46'611.8
2017-Nov-19 18:30N 35°17' E 139°45'713.5
2017-Nov-19 18:01N 35°10' E 139°47'1019.6
2017-Nov-19 17:30N 35°02' E 139°41'1020.0
2017-Nov-19 17:00N 34°56' E 139°31'23219.5
2017-Nov-19 05:06N 33°53' E 135°00'223.7
2017-Nov-19 05:00N 33°55' E 134°60'1223.1
2017-Nov-19 04:30N 34°07' E 134°59'1223.5
2017-Nov-19 04:00N 34°19' E 134°59'1122.0
2017-Nov-19 03:30N 34°30' E 135°02'815.3
2017-Nov-19 03:00N 34°37' E 134°60'917.2
2017-Nov-19 02:27N 34°33' E 134°49'  
2017-Nov-16 15:23N 34°50' E 139°17'922.0
2017-Nov-16 14:59N 34°55' E 139°25'1122.4
2017-Nov-16 14:30N 35°02' E 139°36'1121.5
2017-Nov-16 14:00N 35°09' E 139°45'714.5
2017-Nov-16 13:30N 35°17' E 139°45'815.2
2017-Nov-16 13:00N 35°24' E 139°43'1020.4
2017-Nov-16 12:30N 35°31' E 139°51'6 0.4
2017-Nov-15 22:01N 35°37' E 139°48'0 0.0
2017-Nov-15 21:31N 35°37' E 139°48'0 0.0
2017-Nov-15 20:58N 35°37' E 139°48'0 0.0
2017-Nov-15 20:30N 35°37' E 139°48'1 2.7
2017-Nov-15 20:01N 35°36' E 139°47'815.2
2017-Nov-15 19:30N 35°29' E 139°52'816.6
2017-Nov-15 19:00N 35°23' E 139°46'611.9
2017-Nov-15 18:30N 35°17' E 139°46'714.5
2017-Nov-15 18:00N 35°10' E 139°47'1019.5
2017-Nov-15 17:30N 35°01' E 139°41'1020.2
2017-Nov-15 17:00N 34°55' E 139°31'1020.3
2017-Nov-15 16:30N 34°49' E 139°21'22318.7
2017-Nov-15 04:36N 33°54' E 134°59'223.5
2017-Nov-15 04:30N 33°56' E 134°59'1223.5
2017-Nov-15 04:00N 34°08' E 134°59'1324.1
2017-Nov-15 03:29N 34°20' E 134°60'1123.4
2017-Nov-15 03:01N 34°31' E 135°03'816.2
2017-Nov-15 02:30N 34°36' E 134°55'  
2017-Nov-11 14:21N 34°49' E 139°16'821.7
2017-Nov-11 13:58N 34°54' E 139°24'1022.3
2017-Nov-11 13:31N 35°00' E 139°33'1121.5
2017-Nov-11 13:00N 35°07' E 139°44'816.7
2017-Nov-11 12:30N 35°15' E 139°46'612.9
2017-Nov-11 12:01N 35°21' E 139°42'917.9
2017-Nov-11 11:31N 35°28' E 139°49'714.7
2017-Nov-11 11:00N 35°35' E 139°47'2 0.3
2017-Nov-11 06:11N 35°37' E 139°48'0 0.0
2017-Nov-11 04:59N 35°37' E 139°48'0 0.0
2017-Nov-11 04:23N 35°37' E 139°48'0 0.0
2017-Nov-11 02:29N 35°37' E 139°48'0 0.0
2017-Nov-10 21:28N 35°37' E 139°48'0 0.0
2017-Nov-10 20:56N 35°37' E 139°48'0 0.5
2017-Nov-10 20:29N 35°37' E 139°48'510.2
2017-Nov-10 20:00N 35°33' E 139°51'611.3
2017-Nov-10 19:31N 35°27' E 139°50'713.3
2017-Nov-10 19:00N 35°22' E 139°45'611.2
2017-Nov-10 18:30N 35°16' E 139°46'714.4
2017-Nov-10 18:01N 35°09' E 139°46'1019.7
2017-Nov-10 17:30N 35°01' E 139°39'1121.3
2017-Nov-10 16:59N 34°54' E 139°29'22919.6
2017-Nov-10 05:21N 33°54' E 135°01'822.5
2017-Nov-10 05:00N 34°02' E 135°00'1122.2
2017-Nov-10 04:30N 34°13' E 134°59'1020.4
2017-Nov-10 04:00N 34°23' E 134°59'1021.1
2017-Nov-10 03:30N 34°33' E 135°03'713.5
2017-Nov-10 03:00N 34°35' E 134°55'  

Dump ship's entire track history